Etusivu
METAR-TAF:

METAR-TAF

Lentoasemat :

Curitiba, Paraná, Brasilia

Leveyspiiri: 25-31S, Pituuspiiri: 049-10W, korkeus merenpinnasta: 908 m

Tämänhetkinen sää

Tämä raportti tehtiin 54 minuuttia sitten, kello 04.00 UTC
Tuuli 4 kn pohjoisesta/koillisesta
Lämpötila 15°C
Kosteus 67%
Ilmanpaine 1018 hPa
Näkyvyys 10 km tai enemmän
ei pilviä alle 1500 m:ssä eikä cumulonimbus-pilviä

METAR: SBCT 140400Z 03004KT CAVOK 15/09 Q1018

Aika: 01:54 (04:54 UTC)

Sääennuste

Tämä raportti tehtiin 7 tuntia ja 54 minuuttia sitten, kello 21.00 UTC
Ennuste voimassa 14. päivästä klo 00 UTC - 14. päivään klo 24 UTC
Tuuli 5 kn pohjoisesta/koillisesta
Näkyvyys 10 km tai enemmän
ei pilviä alle 1500 m:ssä eikä cumulonimbus-pilviä
Todennäköisyys 40% :
Ajoittain
14. päivästä klo 08 UTC - 14. päivään klo 12 UTC
Tuuli 10 kn pohjoisesta puuskistuen 22 kn:hen
Näkyvyys: 7000 m

TAF: SBCT 132100Z 1400/1424 03005KT CAVOK TN12/1408Z TX26/1417Z PROB40 TEMPO 1408/1412 35010G22KT 7000 NSC RMK PDG

Säähavainnot ja -ennusteet yli 4000 lentoasemalta (METAR- ja TAF-raportit).

Käytössä olevat sääasemat on merkitty karttaan keltaisilla ja punaisilla pisteillä.

Aseta hiiri pisteen päälle nähdäksesi sääaseman nimen.

Klikkaa sitten nähdäksesi säähavainnot ja -ennusteet.

Kartan vaihtaminen: klikkaa mustalla rastilla varustettuja vihreitä pisteitä, niin voit zoomata sisään; viivalla varustettua vihreää pistettä, niin voit zoomata ulos tai vihreitä nuolia, niin pääset viereisille kartoille.


METAR-TAF: